sensor_id;sensor_type;location;lat;lon;timestamp;P1;durP1;ratioP1;P2;durP2;ratioP2
83835;SDS011;73859;40.830;43.828;2023-11-21T00:00:00;0.80;;;0.63;;
83835;SDS011;73859;40.830;43.828;2023-11-21T00:02:29;1.15;;;0.65;;
83835;SDS011;73859;40.830;43.828;2023-11-21T00:04:56;1.48;;;0.80;;
83835;SDS011;73859;40.830;43.828;2023-11-21T00:07:24;1.92;;;1.00;;
83835;SDS011;73859;40.830;43.828;2023-11-21T00:09:51;1.48;;;0.60;;
83835;SDS011;73859;40.830;43.828;2023-11-21T00:12:19;0.50;;;0.40;;
83835;SDS011;73859;40.830;43.828;2023-11-21T00:17:14;0.98;;;0.80;;
83835;SDS011;73859;40.830;43.828;2023-11-21T00:19:42;0.70;;;0.60;;
83835;SDS011;73859;40.830;43.828;2023-11-21T00:22:09;1.20;;;0.70;;
83835;SDS011;73859;40.830;43.828;2023-11-21T00:24:37;1.05;;;0.80;;
83835;SDS011;73859;40.830;43.828;2023-11-21T00:27:04;1.83;;;0.60;;
83835;SDS011;73859;40.830;43.828;2023-11-21T00:29:33;1.42;;;0.80;;
83835;SDS011;73859;40.830;43.828;2023-11-21T00:32:00;1.20;;;0.65;;
83835;SDS011;73859;40.830;43.828;2023-11-21T00:34:27;2.67;;;0.75;;
83835;SDS011;73859;40.830;43.828;2023-11-21T00:36:54;1.77;;;0.75;;
83835;SDS011;73859;40.830;43.828;2023-11-21T00:39:22;0.68;;;0.60;;
83835;SDS011;73859;40.830;43.828;2023-11-21T00:41:49;3.08;;;1.15;;
83835;SDS011;73859;40.830;43.828;2023-11-21T00:44:18;2.33;;;0.82;;
83835;SDS011;73859;40.830;43.828;2023-11-21T00:46:45;1.17;;;0.80;;
83835;SDS011;73859;40.830;43.828;2023-11-21T00:49:12;0.82;;;0.60;;
83835;SDS011;73859;40.830;43.828;2023-11-21T00:51:40;1.05;;;0.60;;
83835;SDS011;73859;40.830;43.828;2023-11-21T00:54:07;1.40;;;0.75;;
83835;SDS011;73859;40.830;43.828;2023-11-21T00:56:34;1.65;;;0.90;;
83835;SDS011;73859;40.830;43.828;2023-11-21T00:59:02;1.35;;;0.60;;
83835;SDS011;73859;40.830;43.828;2023-11-21T01:01:31;1.30;;;0.82;;
83835;SDS011;73859;40.830;43.828;2023-11-21T01:03:59;1.67;;;1.17;;
83835;SDS011;73859;40.830;43.828;2023-11-21T01:06:26;1.38;;;0.82;;
83835;SDS011;73859;40.830;43.828;2023-11-21T01:08:54;0.85;;;0.70;;
83835;SDS011;73859;40.830;43.828;2023-11-21T01:11:21;1.70;;;0.70;;
83835;SDS011;73859;40.830;43.828;2023-11-21T01:13:49;2.38;;;0.73;;
83835;SDS011;73859;40.830;43.828;2023-11-21T01:16:16;1.30;;;0.60;;
83835;SDS011;73859;40.830;43.828;2023-11-21T01:18:43;0.70;;;0.63;;
83835;SDS011;73859;40.830;43.828;2023-11-21T01:21:11;1.17;;;0.70;;
83835;SDS011;73859;40.830;43.828;2023-11-21T01:23:39;1.88;;;0.77;;
83835;SDS011;73859;40.830;43.828;2023-11-21T01:26:06;0.30;;;0.25;;
83835;SDS011;73859;40.830;43.828;2023-11-21T01:28:36;0.52;;;0.32;;
83835;SDS011;73859;40.830;43.828;2023-11-21T01:31:03;0.63;;;0.55;;
83835;SDS011;73859;40.830;43.828;2023-11-21T01:33:31;0.80;;;0.47;;
83835;SDS011;73859;40.830;43.828;2023-11-21T01:35:58;0.95;;;0.60;;
83835;SDS011;73859;40.830;43.828;2023-11-21T01:38:26;0.70;;;0.50;;
83835;SDS011;73859;40.830;43.828;2023-11-21T01:40:54;0.57;;;0.40;;
83835;SDS011;73859;40.830;43.828;2023-11-21T01:43:21;1.65;;;0.60;;
83835;SDS011;73859;40.830;43.828;2023-11-21T01:45:48;1.30;;;0.52;;
83835;SDS011;73859;40.830;43.828;2023-11-21T01:48:16;0.70;;;0.52;;
83835;SDS011;73859;40.830;43.828;2023-11-21T01:50:44;0.90;;;0.70;;
83835;SDS011;73859;40.830;43.828;2023-11-21T01:53:12;0.85;;;0.40;;
83835;SDS011;73859;40.830;43.828;2023-11-21T01:55:41;0.80;;;0.43;;
83835;SDS011;73859;40.830;43.828;2023-11-21T01:58:09;0.30;;;0.30;;
83835;SDS011;73859;40.830;43.828;2023-11-21T02:00:39;0.22;;;0.15;;
83835;SDS011;73859;40.830;43.828;2023-11-21T02:03:06;1.05;;;0.25;;
83835;SDS011;73859;40.830;43.828;2023-11-21T02:05:34;0.52;;;0.43;;
83835;SDS011;73859;40.830;43.828;2023-11-21T02:08:02;0.70;;;0.40;;
83835;SDS011;73859;40.830;43.828;2023-11-21T02:12:59;1.65;;;0.63;;
83835;SDS011;73859;40.830;43.828;2023-11-21T02:15:29;1.83;;;0.65;;
83835;SDS011;73859;40.830;43.828;2023-11-21T02:17:57;2.88;;;1.17;;
83835;SDS011;73859;40.830;43.828;2023-11-21T02:20:26;1.98;;;0.90;;
83835;SDS011;73859;40.830;43.828;2023-11-21T02:22:56;3.05;;;1.40;;
83835;SDS011;73859;40.830;43.828;2023-11-21T02:25:25;2.67;;;1.40;;
83835;SDS011;73859;40.830;43.828;2023-11-21T02:27:58;2.15;;;1.42;;
83835;SDS011;73859;40.830;43.828;2023-11-21T02:30:30;3.65;;;1.38;;
83835;SDS011;73859;40.830;43.828;2023-11-21T02:33:01;2.00;;;1.17;;
83835;SDS011;73859;40.830;43.828;2023-11-21T02:35:30;2.50;;;1.17;;
83835;SDS011;73859;40.830;43.828;2023-11-21T02:37:58;3.17;;;1.60;;
83835;SDS011;73859;40.830;43.828;2023-11-21T02:40:26;2.65;;;1.60;;
83835;SDS011;73859;40.830;43.828;2023-11-21T02:42:54;4.15;;;1.58;;
83835;SDS011;73859;40.830;43.828;2023-11-21T02:45:22;3.72;;;1.85;;
83835;SDS011;73859;40.830;43.828;2023-11-21T02:47:51;3.42;;;1.20;;
83835;SDS011;73859;40.830;43.828;2023-11-21T02:50:25;1.70;;;1.20;;
83835;SDS011;73859;40.830;43.828;2023-11-21T02:52:52;2.53;;;1.50;;
83835;SDS011;73859;40.830;43.828;2023-11-21T02:55:20;2.35;;;1.20;;
83835;SDS011;73859;40.830;43.828;2023-11-21T02:57:47;2.33;;;1.30;;
83835;SDS011;73859;40.830;43.828;2023-11-21T03:00:15;2.42;;;1.35;;
83835;SDS011;73859;40.830;43.828;2023-11-21T03:02:43;1.65;;;0.80;;
83835;SDS011;73859;40.830;43.828;2023-11-21T03:05:11;1.65;;;0.63;;
83835;SDS011;73859;40.830;43.828;2023-11-21T03:07:38;0.85;;;0.70;;
83835;SDS011;73859;40.830;43.828;2023-11-21T03:10:07;1.85;;;0.90;;
83835;SDS011;73859;40.830;43.828;2023-11-21T03:12:37;1.05;;;0.70;;
83835;SDS011;73859;40.830;43.828;2023-11-21T03:15:06;1.77;;;0.60;;
83835;SDS011;73859;40.830;43.828;2023-11-21T03:17:33;1.55;;;0.80;;
83835;SDS011;73859;40.830;43.828;2023-11-21T03:22:33;1.77;;;0.85;;
83835;SDS011;73859;40.830;43.828;2023-11-21T03:25:00;1.75;;;0.82;;
83835;SDS011;73859;40.830;43.828;2023-11-21T03:27:28;0.85;;;0.60;;
83835;SDS011;73859;40.830;43.828;2023-11-21T03:29:55;1.17;;;0.70;;
83835;SDS011;73859;40.830;43.828;2023-11-21T03:32:23;2.15;;;0.82;;
83835;SDS011;73859;40.830;43.828;2023-11-21T03:34:54;2.72;;;0.70;;
83835;SDS011;73859;40.830;43.828;2023-11-21T03:37:23;2.53;;;0.77;;
83835;SDS011;73859;40.830;43.828;2023-11-21T03:39:51;2.75;;;1.25;;
83835;SDS011;73859;40.830;43.828;2023-11-21T03:42:19;5.05;;;2.03;;
83835;SDS011;73859;40.830;43.828;2023-11-21T03:44:47;19.42;;;14.45;;
83835;SDS011;73859;40.830;43.828;2023-11-21T03:47:15;8.45;;;4.43;;
83835;SDS011;73859;40.830;43.828;2023-11-21T03:49:42;6.68;;;2.45;;
83835;SDS011;73859;40.830;43.828;2023-11-21T03:52:10;8.30;;;3.83;;
83835;SDS011;73859;40.830;43.828;2023-11-21T03:54:37;9.10;;;3.45;;
83835;SDS011;73859;40.830;43.828;2023-11-21T03:57:05;5.47;;;2.97;;
83835;SDS011;73859;40.830;43.828;2023-11-21T03:59:32;1.65;;;0.80;;
83835;SDS011;73859;40.830;43.828;2023-11-21T04:02:00;3.47;;;0.90;;
83835;SDS011;73859;40.830;43.828;2023-11-21T04:04:27;1.30;;;0.60;;
83835;SDS011;73859;40.830;43.828;2023-11-21T04:06:55;1.13;;;0.77;;
83835;SDS011;73859;40.830;43.828;2023-11-21T04:09:23;0.50;;;0.40;;
83835;SDS011;73859;40.830;43.828;2023-11-21T04:11:52;1.38;;;0.50;;
83835;SDS011;73859;40.830;43.828;2023-11-21T04:14:20;1.05;;;0.50;;
83835;SDS011;73859;40.830;43.828;2023-11-21T04:17:20;1.92;;;1.08;;
83835;SDS011;73859;40.830;43.828;2023-11-21T04:19:52;3.85;;;1.73;;
83835;SDS011;73859;40.830;43.828;2023-11-21T04:22:21;3.38;;;1.63;;
83835;SDS011;73859;40.830;43.828;2023-11-21T04:24:48;3.22;;;1.60;;
83835;SDS011;73859;40.830;43.828;2023-11-21T04:27:16;3.50;;;2.13;;
83835;SDS011;73859;40.830;43.828;2023-11-21T04:29:44;7.03;;;3.47;;
83835;SDS011;73859;40.830;43.828;2023-11-21T04:32:12;7.78;;;3.88;;
83835;SDS011;73859;40.830;43.828;2023-11-21T04:34:39;6.25;;;3.90;;
83835;SDS011;73859;40.830;43.828;2023-11-21T04:37:07;7.25;;;5.03;;
83835;SDS011;73859;40.830;43.828;2023-11-21T04:39:34;8.13;;;5.05;;
83835;SDS011;73859;40.830;43.828;2023-11-21T04:42:01;8.68;;;5.47;;
83835;SDS011;73859;40.830;43.828;2023-11-21T04:44:29;10.23;;;5.80;;
83835;SDS011;73859;40.830;43.828;2023-11-21T04:46:56;9.18;;;5.30;;
83835;SDS011;73859;40.830;43.828;2023-11-21T04:49:23;10.15;;;6.40;;
83835;SDS011;73859;40.830;43.828;2023-11-21T04:51:50;10.95;;;6.38;;
83835;SDS011;73859;40.830;43.828;2023-11-21T04:54:18;10.48;;;5.35;;
83835;SDS011;73859;40.830;43.828;2023-11-21T04:56:45;31.60;;;15.18;;
83835;SDS011;73859;40.830;43.828;2023-11-21T04:59:12;33.47;;;18.02;;
83835;SDS011;73859;40.830;43.828;2023-11-21T05:01:40;25.63;;;11.75;;
83835;SDS011;73859;40.830;43.828;2023-11-21T05:04:07;21.88;;;9.75;;
83835;SDS011;73859;40.830;43.828;2023-11-21T05:06:35;15.52;;;9.05;;
83835;SDS011;73859;40.830;43.828;2023-11-21T05:09:03;17.40;;;10.75;;
83835;SDS011;73859;40.830;43.828;2023-11-21T05:11:30;17.70;;;10.15;;
83835;SDS011;73859;40.830;43.828;2023-11-21T05:13:58;16.15;;;8.50;;
83835;SDS011;73859;40.830;43.828;2023-11-21T05:16:28;11.80;;;7.72;;
83835;SDS011;73859;40.830;43.828;2023-11-21T05:18:55;11.88;;;7.45;;
83835;SDS011;73859;40.830;43.828;2023-11-21T05:21:27;9.32;;;5.65;;
83835;SDS011;73859;40.830;43.828;2023-11-21T05:23:57;8.68;;;4.93;;
83835;SDS011;73859;40.830;43.828;2023-11-21T05:26:24;11.00;;;6.18;;
83835;SDS011;73859;40.830;43.828;2023-11-21T05:28:51;13.68;;;8.45;;
83835;SDS011;73859;40.830;43.828;2023-11-21T05:31:19;9.23;;;5.53;;
83835;SDS011;73859;40.830;43.828;2023-11-21T05:33:46;44.22;;;22.80;;
83835;SDS011;73859;40.830;43.828;2023-11-21T05:36:14;20.00;;;11.20;;
83835;SDS011;73859;40.830;43.828;2023-11-21T05:38:41;29.58;;;16.75;;
83835;SDS011;73859;40.830;43.828;2023-11-21T05:41:08;21.38;;;10.15;;
83835;SDS011;73859;40.830;43.828;2023-11-21T05:43:37;21.58;;;11.18;;
83835;SDS011;73859;40.830;43.828;2023-11-21T05:46:05;16.33;;;8.02;;
83835;SDS011;73859;40.830;43.828;2023-11-21T05:48:34;14.75;;;7.60;;
83835;SDS011;73859;40.830;43.828;2023-11-21T05:51:04;13.48;;;6.25;;
83835;SDS011;73859;40.830;43.828;2023-11-21T05:53:33;57.05;;;26.83;;
83835;SDS011;73859;40.830;43.828;2023-11-21T05:56:00;70.63;;;36.35;;
83835;SDS011;73859;40.830;43.828;2023-11-21T05:58:28;33.65;;;20.17;;
83835;SDS011;73859;40.830;43.828;2023-11-21T06:00:55;15.63;;;9.15;;
83835;SDS011;73859;40.830;43.828;2023-11-21T06:03:22;12.65;;;7.30;;
83835;SDS011;73859;40.830;43.828;2023-11-21T06:05:50;9.23;;;6.32;;
83835;SDS011;73859;40.830;43.828;2023-11-21T06:08:17;60.20;;;26.30;;
83835;SDS011;73859;40.830;43.828;2023-11-21T06:10:45;68.30;;;25.42;;
83835;SDS011;73859;40.830;43.828;2023-11-21T06:13:16;17.98;;;8.10;;
83835;SDS011;73859;40.830;43.828;2023-11-21T06:15:46;25.63;;;10.02;;
83835;SDS011;73859;40.830;43.828;2023-11-21T06:18:14;19.65;;;10.43;;
83835;SDS011;73859;40.830;43.828;2023-11-21T06:20:41;38.33;;;21.65;;
83835;SDS011;73859;40.830;43.828;2023-11-21T06:23:08;10.00;;;6.35;;
83835;SDS011;73859;40.830;43.828;2023-11-21T06:25:36;5.57;;;2.78;;
83835;SDS011;73859;40.830;43.828;2023-11-21T06:28:03;5.47;;;2.28;;
83835;SDS011;73859;40.830;43.828;2023-11-21T06:30:31;3.47;;;2.22;;
83835;SDS011;73859;40.830;43.828;2023-11-21T06:32:59;4.53;;;2.35;;
83835;SDS011;73859;40.830;43.828;2023-11-21T06:35:26;4.72;;;3.08;;
83835;SDS011;73859;40.830;43.828;2023-11-21T06:37:57;7.88;;;4.72;;
83835;SDS011;73859;40.830;43.828;2023-11-21T06:40:24;9.00;;;5.82;;
83835;SDS011;73859;40.830;43.828;2023-11-21T06:42:52;10.98;;;5.90;;
83835;SDS011;73859;40.830;43.828;2023-11-21T06:45:19;8.75;;;5.10;;
83835;SDS011;73859;40.830;43.828;2023-11-21T06:47:47;7.38;;;4.07;;
83835;SDS011;73859;40.830;43.828;2023-11-21T06:50:15;4.80;;;2.80;;
83835;SDS011;73859;40.830;43.828;2023-11-21T06:52:43;6.05;;;3.22;;
83835;SDS011;73859;40.830;43.828;2023-11-21T06:55:10;7.57;;;3.45;;
83835;SDS011;73859;40.830;43.828;2023-11-21T06:57:38;5.22;;;3.45;;
83835;SDS011;73859;40.830;43.828;2023-11-21T07:00:05;5.82;;;3.67;;
83835;SDS011;73859;40.830;43.828;2023-11-21T07:02:36;6.28;;;3.60;;
83835;SDS011;73859;40.830;43.828;2023-11-21T07:05:05;6.82;;;3.67;;
83835;SDS011;73859;40.830;43.828;2023-11-21T07:07:33;6.18;;;3.20;;
83835;SDS011;73859;40.830;43.828;2023-11-21T07:10:03;6.53;;;2.97;;
83835;SDS011;73859;40.830;43.828;2023-11-21T07:12:32;5.22;;;2.85;;
83835;SDS011;73859;40.830;43.828;2023-11-21T07:14:59;5.78;;;2.92;;
83835;SDS011;73859;40.830;43.828;2023-11-21T07:17:27;6.25;;;3.40;;
83835;SDS011;73859;40.830;43.828;2023-11-21T07:19:54;4.13;;;1.42;;
83835;SDS011;73859;40.830;43.828;2023-11-21T07:22:22;1.35;;;0.50;;
83835;SDS011;73859;40.830;43.828;2023-11-21T07:24:49;0.77;;;0.47;;
83835;SDS011;73859;40.830;43.828;2023-11-21T07:27:18;0.80;;;0.60;;
83835;SDS011;73859;40.830;43.828;2023-11-21T07:29:45;1.02;;;0.50;;
83835;SDS011;73859;40.830;43.828;2023-11-21T07:32:13;0.63;;;0.45;;
83835;SDS011;73859;40.830;43.828;2023-11-21T07:37:09;1.40;;;0.90;;
83835;SDS011;73859;40.830;43.828;2023-11-21T07:39:36;3.30;;;1.30;;
83835;SDS011;73859;40.830;43.828;2023-11-21T07:42:03;3.30;;;1.50;;
83835;SDS011;73859;40.830;43.828;2023-11-21T07:44:31;2.63;;;1.08;;
83835;SDS011;73859;40.830;43.828;2023-11-21T07:46:58;2.83;;;1.15;;
83835;SDS011;73859;40.830;43.828;2023-11-21T07:49:26;4.85;;;1.30;;
83835;SDS011;73859;40.830;43.828;2023-11-21T07:51:53;3.83;;;1.45;;
83835;SDS011;73859;40.830;43.828;2023-11-21T07:54:21;3.40;;;1.42;;
83835;SDS011;73859;40.830;43.828;2023-11-21T07:56:48;3.17;;;1.40;;
83835;SDS011;73859;40.830;43.828;2023-11-21T07:59:15;1.35;;;0.68;;
83835;SDS011;73859;40.830;43.828;2023-11-21T08:04:12;4.15;;;1.20;;
83835;SDS011;73859;40.830;43.828;2023-11-21T08:06:40;2.85;;;1.20;;
83835;SDS011;73859;40.830;43.828;2023-11-21T08:09:08;2.67;;;0.93;;
83835;SDS011;73859;40.830;43.828;2023-11-21T08:11:36;1.88;;;0.98;;
83835;SDS011;73859;40.830;43.828;2023-11-21T08:14:05;0.93;;;0.35;;
83835;SDS011;73859;40.830;43.828;2023-11-21T08:16:33;0.68;;;0.30;;
83835;SDS011;73859;40.830;43.828;2023-11-21T08:19:00;1.48;;;0.60;;
83835;SDS011;73859;40.830;43.828;2023-11-21T08:21:27;0.73;;;0.43;;
83835;SDS011;73859;40.830;43.828;2023-11-21T08:26:23;1.30;;;0.60;;
83835;SDS011;73859;40.830;43.828;2023-11-21T08:28:51;1.10;;;0.57;;
83835;SDS011;73859;40.830;43.828;2023-11-21T08:31:28;1.25;;;0.70;;
83835;SDS011;73859;40.830;43.828;2023-11-21T08:33:56;0.70;;;0.50;;
83835;SDS011;73859;40.830;43.828;2023-11-21T08:36:23;1.20;;;0.50;;
83835;SDS011;73859;40.830;43.828;2023-11-21T08:38:52;1.45;;;0.45;;
83835;SDS011;73859;40.830;43.828;2023-11-21T08:41:20;0.98;;;0.60;;
83835;SDS011;73859;40.830;43.828;2023-11-21T08:43:50;1.17;;;0.70;;
83835;SDS011;73859;40.830;43.828;2023-11-21T08:46:19;1.38;;;0.80;;
83835;SDS011;73859;40.830;43.828;2023-11-21T08:48:47;0.70;;;0.30;;
83835;SDS011;73859;40.830;43.828;2023-11-21T08:51:14;1.45;;;0.60;;
83835;SDS011;73859;40.830;43.828;2023-11-21T08:56:13;1.25;;;0.40;;
83835;SDS011;73859;40.830;43.828;2023-11-21T08:58:41;1.88;;;0.50;;
83835;SDS011;73859;40.830;43.828;2023-11-21T09:01:08;1.50;;;0.63;;
83835;SDS011;73859;40.830;43.828;2023-11-21T09:03:36;0.80;;;0.52;;
83835;SDS011;73859;40.830;43.828;2023-11-21T09:06:04;1.13;;;0.52;;
83835;SDS011;73859;40.830;43.828;2023-11-21T09:08:32;1.27;;;0.60;;
83835;SDS011;73859;40.830;43.828;2023-11-21T09:10:59;2.35;;;0.57;;
83835;SDS011;73859;40.830;43.828;2023-11-21T09:13:27;0.77;;;0.50;;
83835;SDS011;73859;40.830;43.828;2023-11-21T09:15:54;1.95;;;0.93;;
83835;SDS011;73859;40.830;43.828;2023-11-21T09:18:21;0.82;;;0.40;;
83835;SDS011;73859;40.830;43.828;2023-11-21T09:20:49;0.38;;;0.30;;
83835;SDS011;73859;40.830;43.828;2023-11-21T09:23:16;0.93;;;0.38;;
83835;SDS011;73859;40.830;43.828;2023-11-21T09:25:43;0.57;;;0.30;;
83835;SDS011;73859;40.830;43.828;2023-11-21T09:28:16;0.88;;;0.43;;
83835;SDS011;73859;40.830;43.828;2023-11-21T09:30:44;2.08;;;0.40;;
83835;SDS011;73859;40.830;43.828;2023-11-21T09:33:11;0.30;;;0.30;;
83835;SDS011;73859;40.830;43.828;2023-11-21T09:35:38;0.68;;;0.40;;
83835;SDS011;73859;40.830;43.828;2023-11-21T09:38:06;1.45;;;0.43;;
83835;SDS011;73859;40.830;43.828;2023-11-21T09:40:38;1.15;;;0.45;;
83835;SDS011;73859;40.830;43.828;2023-11-21T09:43:06;1.13;;;0.55;;
83835;SDS011;73859;40.830;43.828;2023-11-21T09:45:45;1.00;;;0.50;;
83835;SDS011;73859;40.830;43.828;2023-11-21T09:48:21;1.08;;;0.40;;
83835;SDS011;73859;40.830;43.828;2023-11-21T09:50:51;1.10;;;0.38;;
83835;SDS011;73859;40.830;43.828;2023-11-21T09:53:21;0.32;;;0.30;;
83835;SDS011;73859;40.830;43.828;2023-11-21T09:55:51;2.50;;;0.40;;
83835;SDS011;73859;40.830;43.828;2023-11-21T09:58:20;0.60;;;0.35;;
83835;SDS011;73859;40.830;43.828;2023-11-21T10:00:50;0.60;;;0.50;;
83835;SDS011;73859;40.830;43.828;2023-11-21T10:03:20;1.85;;;0.55;;
83835;SDS011;73859;40.830;43.828;2023-11-21T10:05:48;0.73;;;0.43;;
83835;SDS011;73859;40.830;43.828;2023-11-21T10:08:17;1.08;;;0.63;;
83835;SDS011;73859;40.830;43.828;2023-11-21T10:10:49;1.00;;;0.43;;
83835;SDS011;73859;40.830;43.828;2023-11-21T10:13:20;0.45;;;0.30;;
83835;SDS011;73859;40.830;43.828;2023-11-21T10:15:49;1.23;;;0.70;;
83835;SDS011;73859;40.830;43.828;2023-11-21T10:18:18;1.10;;;0.32;;
83835;SDS011;73859;40.830;43.828;2023-11-21T10:20:46;0.50;;;0.30;;
83835;SDS011;73859;40.830;43.828;2023-11-21T10:23:23;1.05;;;0.35;;
83835;SDS011;73859;40.830;43.828;2023-11-21T10:25:52;0.32;;;0.30;;
83835;SDS011;73859;40.830;43.828;2023-11-21T10:28:21;1.63;;;0.30;;
83835;SDS011;73859;40.830;43.828;2023-11-21T10:30:48;0.98;;;0.50;;
83835;SDS011;73859;40.830;43.828;2023-11-21T10:33:16;0.30;;;0.20;;
83835;SDS011;73859;40.830;43.828;2023-11-21T10:35:44;0.50;;;0.25;;
83835;SDS011;73859;40.830;43.828;2023-11-21T10:38:21;0.82;;;0.43;;
83835;SDS011;73859;40.830;43.828;2023-11-21T10:40:51;0.43;;;0.38;;
83835;SDS011;73859;40.830;43.828;2023-11-21T10:43:19;0.50;;;0.30;;
83835;SDS011;73859;40.830;43.828;2023-11-21T10:45:47;1.00;;;0.55;;
83835;SDS011;73859;40.830;43.828;2023-11-21T10:48:14;0.60;;;0.45;;
83835;SDS011;73859;40.830;43.828;2023-11-21T10:50:46;0.93;;;0.32;;
83835;SDS011;73859;40.830;43.828;2023-11-21T10:53:14;0.68;;;0.32;;
83835;SDS011;73859;40.830;43.828;2023-11-21T10:55:42;1.17;;;0.50;;
83835;SDS011;73859;40.830;43.828;2023-11-21T10:58:13;0.65;;;0.43;;
83835;SDS011;73859;40.830;43.828;2023-11-21T11:00:41;1.13;;;0.47;;
83835;SDS011;73859;40.830;43.828;2023-11-21T11:03:12;0.95;;;0.50;;
83835;SDS011;73859;40.830;43.828;2023-11-21T11:05:43;0.47;;;0.20;;
83835;SDS011;73859;40.830;43.828;2023-11-21T11:08:21;2.38;;;0.43;;
83835;SDS011;73859;40.830;43.828;2023-11-21T11:10:55;1.05;;;0.50;;
83835;SDS011;73859;40.830;43.828;2023-11-21T11:13:22;0.45;;;0.38;;
83835;SDS011;73859;40.830;43.828;2023-11-21T11:15:51;0.30;;;0.15;;
83835;SDS011;73859;40.830;43.828;2023-11-21T11:18:27;0.45;;;0.25;;
83835;SDS011;73859;40.830;43.828;2023-11-21T11:21:18;0.30;;;0.22;;
83835;SDS011;73859;40.830;43.828;2023-11-21T11:27:15;1.40;;;0.22;;
83835;SDS011;73859;40.830;43.828;2023-11-21T11:35:04;0.22;;;0.22;;
83835;SDS011;73859;40.830;43.828;2023-11-21T11:37:46;0.40;;;0.38;;
83835;SDS011;73859;40.830;43.828;2023-11-21T11:40:13;1.50;;;0.60;;
83835;SDS011;73859;40.830;43.828;2023-11-21T11:42:57;0.63;;;0.45;;
83835;SDS011;73859;40.830;43.828;2023-11-21T11:45:26;0.20;;;0.20;;
83835;SDS011;73859;40.830;43.828;2023-11-21T11:48:00;1.25;;;0.38;;
83835;SDS011;73859;40.830;43.828;2023-11-21T11:50:30;1.20;;;0.60;;
83835;SDS011;73859;40.830;43.828;2023-11-21T11:53:14;1.45;;;0.47;;
83835;SDS011;73859;40.830;43.828;2023-11-21T11:55:42;0.80;;;0.40;;
83835;SDS011;73859;40.830;43.828;2023-11-21T11:58:10;0.15;;;0.13;;
83835;SDS011;73859;40.830;43.828;2023-11-21T12:00:38;0.40;;;0.32;;
83835;SDS011;73859;40.830;43.828;2023-11-21T12:03:08;0.20;;;0.20;;
83835;SDS011;73859;40.830;43.828;2023-11-21T12:05:36;0.57;;;0.28;;
83835;SDS011;73859;40.830;43.828;2023-11-21T12:08:08;0.43;;;0.30;;
83835;SDS011;73859;40.830;43.828;2023-11-21T12:10:37;1.67;;;0.32;;
83835;SDS011;73859;40.830;43.828;2023-11-21T12:13:08;2.05;;;0.63;;
83835;SDS011;73859;40.830;43.828;2023-11-21T12:15:39;2.22;;;0.35;;
83835;SDS011;73859;40.830;43.828;2023-11-21T12:18:09;2.03;;;0.82;;
83835;SDS011;73859;40.830;43.828;2023-11-21T12:20:36;0.32;;;0.30;;
83835;SDS011;73859;40.830;43.828;2023-11-21T12:23:06;1.60;;;0.68;;
83835;SDS011;73859;40.830;43.828;2023-11-21T12:25:36;1.08;;;0.52;;
83835;SDS011;73859;40.830;43.828;2023-11-21T12:28:04;1.63;;;0.68;;
83835;SDS011;73859;40.830;43.828;2023-11-21T12:33:02;1.70;;;0.38;;
83835;SDS011;73859;40.830;43.828;2023-11-21T12:35:32;0.50;;;0.40;;
83835;SDS011;73859;40.830;43.828;2023-11-21T12:38:01;1.20;;;0.52;;
83835;SDS011;73859;40.830;43.828;2023-11-21T12:40:30;0.73;;;0.40;;
83835;SDS011;73859;40.830;43.828;2023-11-21T12:42:58;1.67;;;0.40;;
83835;SDS011;73859;40.830;43.828;2023-11-21T12:45:29;0.52;;;0.40;;
83835;SDS011;73859;40.830;43.828;2023-11-21T12:48:01;0.60;;;0.28;;
83835;SDS011;73859;40.830;43.828;2023-11-21T12:50:36;0.57;;;0.40;;
83835;SDS011;73859;40.830;43.828;2023-11-21T12:53:05;1.63;;;0.70;;
83835;SDS011;73859;40.830;43.828;2023-11-21T12:55:39;0.57;;;0.35;;
83835;SDS011;73859;40.830;43.828;2023-11-21T12:58:09;0.90;;;0.43;;
83835;SDS011;73859;40.830;43.828;2023-11-21T13:00:39;0.85;;;0.45;;
83835;SDS011;73859;40.830;43.828;2023-11-21T13:03:10;2.00;;;0.82;;
83835;SDS011;73859;40.830;43.828;2023-11-21T13:05:43;1.92;;;0.80;;
83835;SDS011;73859;40.830;43.828;2023-11-21T13:08:14;1.33;;;0.80;;
83835;SDS011;73859;40.830;43.828;2023-11-21T13:10:48;2.85;;;1.00;;
83835;SDS011;73859;40.830;43.828;2023-11-21T13:13:23;0.90;;;0.57;;
83835;SDS011;73859;40.830;43.828;2023-11-21T13:18:32;0.95;;;0.32;;
83835;SDS011;73859;40.830;43.828;2023-11-21T13:21:01;0.47;;;0.35;;
83835;SDS011;73859;40.830;43.828;2023-11-21T13:23:44;2.53;;;1.15;;
83835;SDS011;73859;40.830;43.828;2023-11-21T13:26:13;3.90;;;1.67;;
83835;SDS011;73859;40.830;43.828;2023-11-21T13:28:42;3.22;;;1.38;;
83835;SDS011;73859;40.830;43.828;2023-11-21T13:31:13;2.63;;;1.13;;
83835;SDS011;73859;40.830;43.828;2023-11-21T13:33:54;3.83;;;0.98;;
83835;SDS011;73859;40.830;43.828;2023-11-21T13:36:32;1.70;;;0.98;;
83835;SDS011;73859;40.830;43.828;2023-11-21T13:39:02;2.30;;;1.42;;
83835;SDS011;73859;40.830;43.828;2023-11-21T13:41:35;7.68;;;1.48;;
83835;SDS011;73859;40.830;43.828;2023-11-21T13:44:06;6.43;;;1.77;;
83835;SDS011;73859;40.830;43.828;2023-11-21T13:46:54;2.50;;;1.10;;
83835;SDS011;73859;40.830;43.828;2023-11-21T13:49:24;4.60;;;1.63;;
83835;SDS011;73859;40.830;43.828;2023-11-21T13:51:53;3.05;;;1.20;;
83835;SDS011;73859;40.830;43.828;2023-11-21T13:54:22;3.08;;;1.38;;
83835;SDS011;73859;40.830;43.828;2023-11-21T13:56:55;2.53;;;1.08;;
83835;SDS011;73859;40.830;43.828;2023-11-21T13:59:22;1.63;;;1.02;;
83835;SDS011;73859;40.830;43.828;2023-11-21T14:01:52;3.03;;;1.75;;
83835;SDS011;73859;40.830;43.828;2023-11-21T14:04:27;4.95;;;1.27;;
83835;SDS011;73859;40.830;43.828;2023-11-21T14:06:59;4.65;;;1.58;;
83835;SDS011;73859;40.830;43.828;2023-11-21T14:09:38;1.65;;;0.65;;
83835;SDS011;73859;40.830;43.828;2023-11-21T14:12:11;1.48;;;1.10;;
83835;SDS011;73859;40.830;43.828;2023-11-21T14:14:44;2.40;;;1.30;;
83835;SDS011;73859;40.830;43.828;2023-11-21T14:17:14;2.75;;;1.08;;
83835;SDS011;73859;40.830;43.828;2023-11-21T14:19:41;1.52;;;0.77;;
83835;SDS011;73859;40.830;43.828;2023-11-21T14:22:11;2.58;;;1.02;;
83835;SDS011;73859;40.830;43.828;2023-11-21T14:24:47;2.42;;;0.93;;
83835;SDS011;73859;40.830;43.828;2023-11-21T14:27:17;2.50;;;0.80;;
83835;SDS011;73859;40.830;43.828;2023-11-21T14:29:44;2.28;;;1.02;;
83835;SDS011;73859;40.830;43.828;2023-11-21T14:32:12;2.15;;;1.00;;
83835;SDS011;73859;40.830;43.828;2023-11-21T14:34:41;0.70;;;0.47;;
83835;SDS011;73859;40.830;43.828;2023-11-21T14:37:12;2.38;;;1.05;;
83835;SDS011;73859;40.830;43.828;2023-11-21T14:39:40;1.80;;;0.73;;
83835;SDS011;73859;40.830;43.828;2023-11-21T14:42:11;1.42;;;1.05;;
83835;SDS011;73859;40.830;43.828;2023-11-21T14:44:42;1.52;;;0.85;;
83835;SDS011;73859;40.830;43.828;2023-11-21T14:47:09;1.83;;;0.70;;
83835;SDS011;73859;40.830;43.828;2023-11-21T14:49:42;1.95;;;0.90;;
83835;SDS011;73859;40.830;43.828;2023-11-21T14:52:20;1.02;;;0.60;;
83835;SDS011;73859;40.830;43.828;2023-11-21T14:55:05;3.33;;;0.70;;
83835;SDS011;73859;40.830;43.828;2023-11-21T14:57:51;3.13;;;1.45;;
83835;SDS011;73859;40.830;43.828;2023-11-21T15:00:20;3.08;;;1.20;;
83835;SDS011;73859;40.830;43.828;2023-11-21T15:03:03;2.55;;;1.02;;
83835;SDS011;73859;40.830;43.828;2023-11-21T15:05:36;1.75;;;1.00;;
83835;SDS011;73859;40.830;43.828;2023-11-21T15:08:06;3.38;;;1.73;;
83835;SDS011;73859;40.830;43.828;2023-11-21T15:10:53;1.48;;;0.80;;
83835;SDS011;73859;40.830;43.828;2023-11-21T15:13:21;4.00;;;1.92;;
83835;SDS011;73859;40.830;43.828;2023-11-21T15:15:51;3.38;;;1.35;;